sensor_id;sensor_type;location;lat;lon;timestamp;temperature;humidity
21570;DHT22;57598;50.888;4.746;2023-06-22T00:02:05;22.80;99.90
21570;DHT22;57598;50.888;4.746;2023-06-22T00:04:32;22.70;99.90
21570;DHT22;57598;50.888;4.746;2023-06-22T00:06:59;22.70;99.90
21570;DHT22;57598;50.888;4.746;2023-06-22T00:09:31;22.70;99.90
21570;DHT22;57598;50.888;4.746;2023-06-22T00:11:58;22.60;99.90
21570;DHT22;57598;50.888;4.746;2023-06-22T00:14:25;22.70;99.90
21570;DHT22;57598;50.888;4.746;2023-06-22T00:16:52;22.60;99.90
21570;DHT22;57598;50.888;4.746;2023-06-22T00:19:20;22.70;99.90
21570;DHT22;57598;50.888;4.746;2023-06-22T00:21:47;22.60;99.90
21570;DHT22;57598;50.888;4.746;2023-06-22T00:24:18;22.60;99.90
21570;DHT22;57598;50.888;4.746;2023-06-22T00:26:47;22.60;99.90
21570;DHT22;57598;50.888;4.746;2023-06-22T00:29:14;22.50;99.90
21570;DHT22;57598;50.888;4.746;2023-06-22T00:31:41;22.40;99.90
21570;DHT22;57598;50.888;4.746;2023-06-22T00:34:08;22.40;99.90
21570;DHT22;57598;50.888;4.746;2023-06-22T00:36:36;22.40;99.90
21570;DHT22;57598;50.888;4.746;2023-06-22T00:39:03;22.30;99.90
21570;DHT22;57598;50.888;4.746;2023-06-22T00:41:31;22.10;99.90
21570;DHT22;57598;50.888;4.746;2023-06-22T00:43:59;22.00;99.90
21570;DHT22;57598;50.888;4.746;2023-06-22T00:46:27;22.00;99.90
21570;DHT22;57598;50.888;4.746;2023-06-22T00:48:54;22.00;99.90
21570;DHT22;57598;50.888;4.746;2023-06-22T00:51:23;21.90;99.90
21570;DHT22;57598;50.888;4.746;2023-06-22T00:53:50;21.90;99.90
21570;DHT22;57598;50.888;4.746;2023-06-22T00:56:17;21.90;99.90
21570;DHT22;57598;50.888;4.746;2023-06-22T00:58:50;21.70;99.90
21570;DHT22;57598;50.888;4.746;2023-06-22T01:01:20;21.80;99.90
21570;DHT22;57598;50.888;4.746;2023-06-22T01:03:49;21.80;99.90
21570;DHT22;57598;50.888;4.746;2023-06-22T01:06:21;21.90;99.90
21570;DHT22;57598;50.888;4.746;2023-06-22T01:08:57;21.90;99.90
21570;DHT22;57598;50.888;4.746;2023-06-22T01:11:32;21.90;99.90
21570;DHT22;57598;50.888;4.746;2023-06-22T01:14:05;21.90;99.90
21570;DHT22;57598;50.888;4.746;2023-06-22T01:16:36;21.90;99.90
21570;DHT22;57598;50.888;4.746;2023-06-22T01:21:55;21.90;99.90
21570;DHT22;57598;50.888;4.746;2023-06-22T01:24:26;22.00;99.90
21570;DHT22;57598;50.888;4.746;2023-06-22T01:27:05;21.90;99.90
21570;DHT22;57598;50.888;4.746;2023-06-22T01:29:38;21.80;99.90
21570;DHT22;57598;50.888;4.746;2023-06-22T01:32:06;21.90;99.90
21570;DHT22;57598;50.888;4.746;2023-06-22T01:34:34;21.90;99.90
21570;DHT22;57598;50.888;4.746;2023-06-22T01:37:02;21.90;99.90
21570;DHT22;57598;50.888;4.746;2023-06-22T01:39:30;21.90;99.90
21570;DHT22;57598;50.888;4.746;2023-06-22T01:41:58;21.80;99.90
21570;DHT22;57598;50.888;4.746;2023-06-22T01:44:26;21.70;99.90
21570;DHT22;57598;50.888;4.746;2023-06-22T01:46:55;21.60;99.90
21570;DHT22;57598;50.888;4.746;2023-06-22T01:49:22;21.50;99.90
21570;DHT22;57598;50.888;4.746;2023-06-22T01:51:49;21.50;99.90
21570;DHT22;57598;50.888;4.746;2023-06-22T01:54:17;21.50;99.90
21570;DHT22;57598;50.888;4.746;2023-06-22T01:56:44;21.40;99.90
21570;DHT22;57598;50.888;4.746;2023-06-22T01:59:16;21.20;99.90
21570;DHT22;57598;50.888;4.746;2023-06-22T02:01:50;21.20;99.90
21570;DHT22;57598;50.888;4.746;2023-06-22T02:04:24;21.10;99.90
21570;DHT22;57598;50.888;4.746;2023-06-22T02:06:56;21.10;99.90
21570;DHT22;57598;50.888;4.746;2023-06-22T02:09:26;21.20;99.90
21570;DHT22;57598;50.888;4.746;2023-06-22T02:11:56;21.20;99.90
21570;DHT22;57598;50.888;4.746;2023-06-22T02:14:25;21.10;99.90
21570;DHT22;57598;50.888;4.746;2023-06-22T02:16:52;21.10;99.90
21570;DHT22;57598;50.888;4.746;2023-06-22T02:19:24;21.10;99.90
21570;DHT22;57598;50.888;4.746;2023-06-22T02:21:51;21.10;99.90
21570;DHT22;57598;50.888;4.746;2023-06-22T02:24:18;21.10;99.90
21570;DHT22;57598;50.888;4.746;2023-06-22T02:26:45;21.10;99.90
21570;DHT22;57598;50.888;4.746;2023-06-22T02:29:12;21.10;99.90
21570;DHT22;57598;50.888;4.746;2023-06-22T02:31:39;21.10;99.90
21570;DHT22;57598;50.888;4.746;2023-06-22T02:34:06;21.10;99.90
21570;DHT22;57598;50.888;4.746;2023-06-22T02:36:34;21.00;99.90
21570;DHT22;57598;50.888;4.746;2023-06-22T02:39:01;21.00;99.90
21570;DHT22;57598;50.888;4.746;2023-06-22T02:41:29;21.00;99.90
21570;DHT22;57598;50.888;4.746;2023-06-22T02:43:56;20.90;99.90
21570;DHT22;57598;50.888;4.746;2023-06-22T02:46:23;20.90;99.90
21570;DHT22;57598;50.888;4.746;2023-06-22T02:48:50;21.00;99.90
21570;DHT22;57598;50.888;4.746;2023-06-22T02:51:17;21.10;99.90
21570;DHT22;57598;50.888;4.746;2023-06-22T02:53:45;21.10;99.90
21570;DHT22;57598;50.888;4.746;2023-06-22T02:56:12;21.20;99.90
21570;DHT22;57598;50.888;4.746;2023-06-22T02:58:39;21.30;99.90
21570;DHT22;57598;50.888;4.746;2023-06-22T03:01:06;21.20;99.90
21570;DHT22;57598;50.888;4.746;2023-06-22T03:03:33;21.20;99.90
21570;DHT22;57598;50.888;4.746;2023-06-22T03:06:00;21.20;99.90
21570;DHT22;57598;50.888;4.746;2023-06-22T03:08:28;21.10;99.90
21570;DHT22;57598;50.888;4.746;2023-06-22T03:10:56;21.00;99.90
21570;DHT22;57598;50.888;4.746;2023-06-22T03:13:24;20.90;99.90
21570;DHT22;57598;50.888;4.746;2023-06-22T03:15:50;21.00;99.90
21570;DHT22;57598;50.888;4.746;2023-06-22T03:18:18;21.00;99.90
21570;DHT22;57598;50.888;4.746;2023-06-22T03:20:45;21.00;99.90
21570;DHT22;57598;50.888;4.746;2023-06-22T03:23:12;20.90;99.90
21570;DHT22;57598;50.888;4.746;2023-06-22T03:25:40;20.90;99.90
21570;DHT22;57598;50.888;4.746;2023-06-22T03:28:08;21.00;99.90
21570;DHT22;57598;50.888;4.746;2023-06-22T03:30:35;21.00;99.90
21570;DHT22;57598;50.888;4.746;2023-06-22T03:33:03;21.00;99.90
21570;DHT22;57598;50.888;4.746;2023-06-22T03:35:30;21.00;99.90
21570;DHT22;57598;50.888;4.746;2023-06-22T03:37:56;21.00;99.90
21570;DHT22;57598;50.888;4.746;2023-06-22T03:40:23;21.10;99.90
21570;DHT22;57598;50.888;4.746;2023-06-22T03:42:50;21.00;99.90
21570;DHT22;57598;50.888;4.746;2023-06-22T03:45:19;21.10;99.90
21570;DHT22;57598;50.888;4.746;2023-06-22T03:47:46;21.10;99.90
21570;DHT22;57598;50.888;4.746;2023-06-22T03:50:13;21.00;99.90
21570;DHT22;57598;50.888;4.746;2023-06-22T03:52:40;21.20;99.90
21570;DHT22;57598;50.888;4.746;2023-06-22T03:55:07;21.20;99.90
21570;DHT22;57598;50.888;4.746;2023-06-22T03:57:34;21.10;99.90
21570;DHT22;57598;50.888;4.746;2023-06-22T04:00:01;21.00;99.90
21570;DHT22;57598;50.888;4.746;2023-06-22T04:02:32;21.10;99.90
21570;DHT22;57598;50.888;4.746;2023-06-22T04:04:59;21.10;99.90
21570;DHT22;57598;50.888;4.746;2023-06-22T04:07:26;21.10;99.90
21570;DHT22;57598;50.888;4.746;2023-06-22T04:09:53;21.10;99.90
21570;DHT22;57598;50.888;4.746;2023-06-22T04:12:20;21.10;99.90
21570;DHT22;57598;50.888;4.746;2023-06-22T04:14:47;21.20;99.90
21570;DHT22;57598;50.888;4.746;2023-06-22T04:17:14;21.20;99.90
21570;DHT22;57598;50.888;4.746;2023-06-22T04:19:42;21.20;99.90
21570;DHT22;57598;50.888;4.746;2023-06-22T04:22:09;21.20;99.90
21570;DHT22;57598;50.888;4.746;2023-06-22T04:24:37;21.20;99.90
21570;DHT22;57598;50.888;4.746;2023-06-22T04:27:05;21.20;99.90
21570;DHT22;57598;50.888;4.746;2023-06-22T04:29:32;21.10;99.90
21570;DHT22;57598;50.888;4.746;2023-06-22T04:31:59;21.10;99.90
21570;DHT22;57598;50.888;4.746;2023-06-22T04:34:28;21.10;99.90
21570;DHT22;57598;50.888;4.746;2023-06-22T04:36:57;21.10;99.90
21570;DHT22;57598;50.888;4.746;2023-06-22T04:39:24;21.20;99.90
21570;DHT22;57598;50.888;4.746;2023-06-22T04:41:52;21.10;99.90
21570;DHT22;57598;50.888;4.746;2023-06-22T04:44:20;21.10;99.90
21570;DHT22;57598;50.888;4.746;2023-06-22T04:46:50;21.10;99.90
21570;DHT22;57598;50.888;4.746;2023-06-22T04:49:20;21.00;99.90
21570;DHT22;57598;50.888;4.746;2023-06-22T04:51:48;21.00;99.90
21570;DHT22;57598;50.888;4.746;2023-06-22T04:54:18;21.10;99.90
21570;DHT22;57598;50.888;4.746;2023-06-22T04:56:45;21.10;99.90
21570;DHT22;57598;50.888;4.746;2023-06-22T04:59:15;21.10;99.90
21570;DHT22;57598;50.888;4.746;2023-06-22T05:01:44;21.10;99.90
21570;DHT22;57598;50.888;4.746;2023-06-22T05:04:11;21.10;99.90
21570;DHT22;57598;50.888;4.746;2023-06-22T05:06:38;21.30;99.90
21570;DHT22;57598;50.888;4.746;2023-06-22T05:09:05;21.30;99.90
21570;DHT22;57598;50.888;4.746;2023-06-22T05:11:34;21.40;99.90
21570;DHT22;57598;50.888;4.746;2023-06-22T05:14:01;21.40;99.90
21570;DHT22;57598;50.888;4.746;2023-06-22T05:16:28;21.40;99.90
21570;DHT22;57598;50.888;4.746;2023-06-22T05:18:55;21.40;99.90
21570;DHT22;57598;50.888;4.746;2023-06-22T05:21:23;21.40;99.90
21570;DHT22;57598;50.888;4.746;2023-06-22T05:23:51;21.40;99.90
21570;DHT22;57598;50.888;4.746;2023-06-22T05:26:19;21.40;99.90
21570;DHT22;57598;50.888;4.746;2023-06-22T05:28:47;21.40;99.90
21570;DHT22;57598;50.888;4.746;2023-06-22T05:31:15;21.50;99.90
21570;DHT22;57598;50.888;4.746;2023-06-22T05:33:43;21.60;99.90
21570;DHT22;57598;50.888;4.746;2023-06-22T05:36:10;21.60;99.90
21570;DHT22;57598;50.888;4.746;2023-06-22T05:38:41;21.70;99.90
21570;DHT22;57598;50.888;4.746;2023-06-22T05:41:08;21.60;99.90
21570;DHT22;57598;50.888;4.746;2023-06-22T05:43:35;21.70;99.90
21570;DHT22;57598;50.888;4.746;2023-06-22T05:46:04;21.70;99.90
21570;DHT22;57598;50.888;4.746;2023-06-22T05:48:31;21.80;99.90
21570;DHT22;57598;50.888;4.746;2023-06-22T05:50:58;21.80;99.90
21570;DHT22;57598;50.888;4.746;2023-06-22T05:53:25;21.70;99.90
21570;DHT22;57598;50.888;4.746;2023-06-22T05:55:52;21.60;99.90
21570;DHT22;57598;50.888;4.746;2023-06-22T05:58:20;21.40;99.90
21570;DHT22;57598;50.888;4.746;2023-06-22T06:00:47;21.50;99.90
21570;DHT22;57598;50.888;4.746;2023-06-22T06:03:15;21.50;99.90
21570;DHT22;57598;50.888;4.746;2023-06-22T06:05:43;21.50;99.90
21570;DHT22;57598;50.888;4.746;2023-06-22T06:08:11;21.70;99.90
21570;DHT22;57598;50.888;4.746;2023-06-22T06:10:38;21.80;99.90
21570;DHT22;57598;50.888;4.746;2023-06-22T06:13:05;21.80;99.90
21570;DHT22;57598;50.888;4.746;2023-06-22T06:15:34;21.60;99.90
21570;DHT22;57598;50.888;4.746;2023-06-22T06:18:01;21.50;99.90
21570;DHT22;57598;50.888;4.746;2023-06-22T06:20:32;21.50;99.90
21570;DHT22;57598;50.888;4.746;2023-06-22T06:22:59;21.60;99.90
21570;DHT22;57598;50.888;4.746;2023-06-22T06:25:26;21.70;99.90
21570;DHT22;57598;50.888;4.746;2023-06-22T06:27:53;21.80;99.90
21570;DHT22;57598;50.888;4.746;2023-06-22T06:30:21;21.90;99.90
21570;DHT22;57598;50.888;4.746;2023-06-22T06:32:49;22.00;99.90
21570;DHT22;57598;50.888;4.746;2023-06-22T06:35:17;22.10;99.90
21570;DHT22;57598;50.888;4.746;2023-06-22T06:37:47;22.20;99.90
21570;DHT22;57598;50.888;4.746;2023-06-22T06:40:15;22.20;99.90
21570;DHT22;57598;50.888;4.746;2023-06-22T06:42:45;22.30;99.90
21570;DHT22;57598;50.888;4.746;2023-06-22T06:45:14;22.40;99.90
21570;DHT22;57598;50.888;4.746;2023-06-22T06:47:41;22.40;99.90
21570;DHT22;57598;50.888;4.746;2023-06-22T06:50:10;22.50;99.90
21570;DHT22;57598;50.888;4.746;2023-06-22T06:52:37;22.60;99.90
21570;DHT22;57598;50.888;4.746;2023-06-22T06:55:06;22.70;99.90
21570;DHT22;57598;50.888;4.746;2023-06-22T06:57:36;22.60;99.90
21570;DHT22;57598;50.888;4.746;2023-06-22T07:00:03;22.70;99.90
21570;DHT22;57598;50.888;4.746;2023-06-22T07:02:39;22.60;99.90
21570;DHT22;57598;50.888;4.746;2023-06-22T07:05:07;22.70;99.90
21570;DHT22;57598;50.888;4.746;2023-06-22T07:07:34;22.90;99.90
21570;DHT22;57598;50.888;4.746;2023-06-22T07:10:01;22.70;99.90
21570;DHT22;57598;50.888;4.746;2023-06-22T07:12:30;22.50;99.90
21570;DHT22;57598;50.888;4.746;2023-06-22T07:15:02;22.50;99.90
21570;DHT22;57598;50.888;4.746;2023-06-22T07:17:29;22.60;99.90
21570;DHT22;57598;50.888;4.746;2023-06-22T07:19:56;22.40;99.90
21570;DHT22;57598;50.888;4.746;2023-06-22T07:22:23;22.50;99.90
21570;DHT22;57598;50.888;4.746;2023-06-22T07:24:50;22.50;99.90
21570;DHT22;57598;50.888;4.746;2023-06-22T07:27:17;22.40;99.90
21570;DHT22;57598;50.888;4.746;2023-06-22T07:29:47;22.60;99.90
21570;DHT22;57598;50.888;4.746;2023-06-22T07:32:14;22.70;99.90
21570;DHT22;57598;50.888;4.746;2023-06-22T07:34:41;22.70;99.90
21570;DHT22;57598;50.888;4.746;2023-06-22T07:37:08;22.70;99.90
21570;DHT22;57598;50.888;4.746;2023-06-22T07:39:35;22.80;99.90
21570;DHT22;57598;50.888;4.746;2023-06-22T07:42:03;22.60;99.90
21570;DHT22;57598;50.888;4.746;2023-06-22T07:44:31;22.50;99.90
21570;DHT22;57598;50.888;4.746;2023-06-22T07:46:59;22.50;99.90
21570;DHT22;57598;50.888;4.746;2023-06-22T07:49:27;22.50;99.90
21570;DHT22;57598;50.888;4.746;2023-06-22T07:51:54;22.50;99.90
21570;DHT22;57598;50.888;4.746;2023-06-22T07:54:21;22.40;99.90
21570;DHT22;57598;50.888;4.746;2023-06-22T07:56:48;22.30;99.90
21570;DHT22;57598;50.888;4.746;2023-06-22T07:59:15;22.20;99.90
21570;DHT22;57598;50.888;4.746;2023-06-22T08:01:42;22.20;99.90
21570;DHT22;57598;50.888;4.746;2023-06-22T08:04:11;22.20;99.90
21570;DHT22;57598;50.888;4.746;2023-06-22T08:06:38;22.20;99.90
21570;DHT22;57598;50.888;4.746;2023-06-22T08:09:05;22.20;99.90
21570;DHT22;57598;50.888;4.746;2023-06-22T08:11:32;22.30;99.90
21570;DHT22;57598;50.888;4.746;2023-06-22T08:13:59;22.30;99.90
21570;DHT22;57598;50.888;4.746;2023-06-22T08:16:26;22.20;99.90
21570;DHT22;57598;50.888;4.746;2023-06-22T08:18:53;22.30;99.90
21570;DHT22;57598;50.888;4.746;2023-06-22T08:21:22;22.20;99.90
21570;DHT22;57598;50.888;4.746;2023-06-22T08:23:49;22.10;99.90
21570;DHT22;57598;50.888;4.746;2023-06-22T08:26:16;22.20;99.90
21570;DHT22;57598;50.888;4.746;2023-06-22T08:28:43;22.30;99.90
21570;DHT22;57598;50.888;4.746;2023-06-22T08:31:10;22.30;99.90
21570;DHT22;57598;50.888;4.746;2023-06-22T08:33:39;22.30;99.90
21570;DHT22;57598;50.888;4.746;2023-06-22T08:36:08;22.30;99.90
21570;DHT22;57598;50.888;4.746;2023-06-22T08:38:38;22.40;99.90
21570;DHT22;57598;50.888;4.746;2023-06-22T08:41:04;22.40;99.90
21570;DHT22;57598;50.888;4.746;2023-06-22T08:43:31;22.50;99.90
21570;DHT22;57598;50.888;4.746;2023-06-22T08:45:58;22.50;99.90
21570;DHT22;57598;50.888;4.746;2023-06-22T08:48:26;22.50;99.90
21570;DHT22;57598;50.888;4.746;2023-06-22T08:50:53;22.60;99.90
21570;DHT22;57598;50.888;4.746;2023-06-22T08:53:20;22.60;99.90
21570;DHT22;57598;50.888;4.746;2023-06-22T08:55:49;22.70;99.90
21570;DHT22;57598;50.888;4.746;2023-06-22T08:58:16;22.70;99.90
21570;DHT22;57598;50.888;4.746;2023-06-22T09:00:43;22.70;99.90
21570;DHT22;57598;50.888;4.746;2023-06-22T09:03:10;22.80;99.90
21570;DHT22;57598;50.888;4.746;2023-06-22T09:05:37;23.00;99.90
21570;DHT22;57598;50.888;4.746;2023-06-22T09:08:04;23.00;99.90
21570;DHT22;57598;50.888;4.746;2023-06-22T09:10:31;23.10;99.90
21570;DHT22;57598;50.888;4.746;2023-06-22T09:13:00;22.90;99.90
21570;DHT22;57598;50.888;4.746;2023-06-22T09:15:27;22.80;99.90
21570;DHT22;57598;50.888;4.746;2023-06-22T09:17:54;22.80;99.90
21570;DHT22;57598;50.888;4.746;2023-06-22T09:20:23;22.90;99.90
21570;DHT22;57598;50.888;4.746;2023-06-22T09:22:50;22.80;99.90
21570;DHT22;57598;50.888;4.746;2023-06-22T09:25:17;22.90;99.90
21570;DHT22;57598;50.888;4.746;2023-06-22T09:27:46;22.80;99.90
21570;DHT22;57598;50.888;4.746;2023-06-22T09:30:14;22.70;99.90
21570;DHT22;57598;50.888;4.746;2023-06-22T09:32:41;22.50;99.90
21570;DHT22;57598;50.888;4.746;2023-06-22T09:35:09;22.50;99.90
21570;DHT22;57598;50.888;4.746;2023-06-22T09:37:38;22.30;99.90
21570;DHT22;57598;50.888;4.746;2023-06-22T09:40:07;22.30;99.90
21570;DHT22;57598;50.888;4.746;2023-06-22T09:42:36;22.30;99.90
21570;DHT22;57598;50.888;4.746;2023-06-22T09:45:04;22.20;99.90
21570;DHT22;57598;50.888;4.746;2023-06-22T09:47:33;22.00;99.90
21570;DHT22;57598;50.888;4.746;2023-06-22T09:50:00;22.00;99.90
21570;DHT22;57598;50.888;4.746;2023-06-22T09:52:27;21.70;99.90
21570;DHT22;57598;50.888;4.746;2023-06-22T09:54:54;21.60;99.90
21570;DHT22;57598;50.888;4.746;2023-06-22T09:57:21;21.30;99.90
21570;DHT22;57598;50.888;4.746;2023-06-22T09:59:48;20.90;99.90
21570;DHT22;57598;50.888;4.746;2023-06-22T10:02:15;20.60;99.90
21570;DHT22;57598;50.888;4.746;2023-06-22T10:04:44;20.40;99.90
21570;DHT22;57598;50.888;4.746;2023-06-22T10:07:11;20.20;99.90
21570;DHT22;57598;50.888;4.746;2023-06-22T10:09:38;20.30;99.90
21570;DHT22;57598;50.888;4.746;2023-06-22T10:12:06;20.20;99.90
21570;DHT22;57598;50.888;4.746;2023-06-22T10:14:33;20.30;99.90
21570;DHT22;57598;50.888;4.746;2023-06-22T10:17:00;20.10;99.90
21570;DHT22;57598;50.888;4.746;2023-06-22T10:19:27;19.80;99.90
21570;DHT22;57598;50.888;4.746;2023-06-22T10:21:55;19.60;99.90
21570;DHT22;57598;50.888;4.746;2023-06-22T10:24:22;19.60;99.90
21570;DHT22;57598;50.888;4.746;2023-06-22T10:26:49;19.90;99.90
21570;DHT22;57598;50.888;4.746;2023-06-22T10:29:16;20.00;99.90
21570;DHT22;57598;50.888;4.746;2023-06-22T10:31:43;20.00;99.90
21570;DHT22;57598;50.888;4.746;2023-06-22T10:34:10;20.10;99.90
21570;DHT22;57598;50.888;4.746;2023-06-22T10:36:37;19.90;99.90
21570;DHT22;57598;50.888;4.746;2023-06-22T10:39:06;20.00;99.90
21570;DHT22;57598;50.888;4.746;2023-06-22T10:41:34;19.90;99.90
21570;DHT22;57598;50.888;4.746;2023-06-22T10:44:01;19.80;99.90
21570;DHT22;57598;50.888;4.746;2023-06-22T10:46:28;19.80;99.90
21570;DHT22;57598;50.888;4.746;2023-06-22T10:48:55;19.90;99.90
21570;DHT22;57598;50.888;4.746;2023-06-22T10:51:24;19.90;99.90
21570;DHT22;57598;50.888;4.746;2023-06-22T10:53:51;19.80;99.90
21570;DHT22;57598;50.888;4.746;2023-06-22T10:56:19;19.80;99.90
21570;DHT22;57598;50.888;4.746;2023-06-22T10:58:46;19.80;99.90
21570;DHT22;57598;50.888;4.746;2023-06-22T11:01:13;19.80;99.90
21570;DHT22;57598;50.888;4.746;2023-06-22T11:03:40;19.90;99.90
21570;DHT22;57598;50.888;4.746;2023-06-22T11:06:07;19.90;99.90
21570;DHT22;57598;50.888;4.746;2023-06-22T11:08:34;19.90;99.90
21570;DHT22;57598;50.888;4.746;2023-06-22T11:11:01;19.90;99.90
21570;DHT22;57598;50.888;4.746;2023-06-22T11:13:29;20.10;99.90
21570;DHT22;57598;50.888;4.746;2023-06-22T11:15:56;20.10;99.90
21570;DHT22;57598;50.888;4.746;2023-06-22T11:18:23;20.00;99.90
21570;DHT22;57598;50.888;4.746;2023-06-22T11:20:50;20.00;99.90
21570;DHT22;57598;50.888;4.746;2023-06-22T11:23:18;20.10;99.90
21570;DHT22;57598;50.888;4.746;2023-06-22T11:25:45;20.10;99.90
21570;DHT22;57598;50.888;4.746;2023-06-22T11:28:12;20.10;99.90
21570;DHT22;57598;50.888;4.746;2023-06-22T11:30:41;20.10;99.90
21570;DHT22;57598;50.888;4.746;2023-06-22T11:33:14;20.10;99.90
21570;DHT22;57598;50.888;4.746;2023-06-22T11:35:41;20.10;99.90
21570;DHT22;57598;50.888;4.746;2023-06-22T11:38:08;20.10;99.90
21570;DHT22;57598;50.888;4.746;2023-06-22T11:40:35;20.20;99.90
21570;DHT22;57598;50.888;4.746;2023-06-22T11:43:02;20.20;99.90
21570;DHT22;57598;50.888;4.746;2023-06-22T11:45:30;20.10;99.90
21570;DHT22;57598;50.888;4.746;2023-06-22T11:47:58;20.20;99.90
21570;DHT22;57598;50.888;4.746;2023-06-22T11:50:25;20.10;99.90
21570;DHT22;57598;50.888;4.746;2023-06-22T11:52:54;20.10;99.90
21570;DHT22;57598;50.888;4.746;2023-06-22T11:55:21;20.20;99.90
21570;DHT22;57598;50.888;4.746;2023-06-22T11:57:55;20.00;99.90
21570;DHT22;57598;50.888;4.746;2023-06-22T12:00:24;20.10;99.90
21570;DHT22;57598;50.888;4.746;2023-06-22T12:02:51;19.90;99.90
21570;DHT22;57598;50.888;4.746;2023-06-22T12:05:20;20.00;99.90
21570;DHT22;57598;50.888;4.746;2023-06-22T12:07:48;20.10;99.90
21570;DHT22;57598;50.888;4.746;2023-06-22T12:10:15;20.20;99.90
21570;DHT22;57598;50.888;4.746;2023-06-22T12:12:45;20.30;99.90
21570;DHT22;57598;50.888;4.746;2023-06-22T12:15:12;20.30;99.90
21570;DHT22;57598;50.888;4.746;2023-06-22T12:17:39;20.30;99.90
21570;DHT22;57598;50.888;4.746;2023-06-22T12:20:07;20.20;99.90
21570;DHT22;57598;50.888;4.746;2023-06-22T12:22:36;20.30;99.90
21570;DHT22;57598;50.888;4.746;2023-06-22T12:25:04;20.10;99.90
21570;DHT22;57598;50.888;4.746;2023-06-22T12:27:31;20.10;99.90
21570;DHT22;57598;50.888;4.746;2023-06-22T12:29:58;20.10;99.90
21570;DHT22;57598;50.888;4.746;2023-06-22T12:32:25;20.00;99.90
21570;DHT22;57598;50.888;4.746;2023-06-22T12:34:52;19.90;99.90
21570;DHT22;57598;50.888;4.746;2023-06-22T12:37:20;19.90;99.90
21570;DHT22;57598;50.888;4.746;2023-06-22T12:39:48;19.80;99.90
21570;DHT22;57598;50.888;4.746;2023-06-22T12:42:15;19.90;99.90
21570;DHT22;57598;50.888;4.746;2023-06-22T12:44:43;20.00;99.90
21570;DHT22;57598;50.888;4.746;2023-06-22T12:47:10;19.90;99.90
21570;DHT22;57598;50.888;4.746;2023-06-22T12:49:37;19.90;99.90
21570;DHT22;57598;50.888;4.746;2023-06-22T12:52:09;19.90;99.90
21570;DHT22;57598;50.888;4.746;2023-06-22T12:54:37;19.90;99.90
21570;DHT22;57598;50.888;4.746;2023-06-22T12:57:06;19.90;99.90
21570;DHT22;57598;50.888;4.746;2023-06-22T12:59:33;19.90;99.90
21570;DHT22;57598;50.888;4.746;2023-06-22T13:02:00;20.00;99.90
21570;DHT22;57598;50.888;4.746;2023-06-22T13:04:27;19.90;99.90
21570;DHT22;57598;50.888;4.746;2023-06-22T13:06:54;20.00;99.90
21570;DHT22;57598;50.888;4.746;2023-06-22T13:09:21;20.00;99.90
21570;DHT22;57598;50.888;4.746;2023-06-22T13:11:48;20.00;99.90
21570;DHT22;57598;50.888;4.746;2023-06-22T13:14:18;19.90;99.90
21570;DHT22;57598;50.888;4.746;2023-06-22T13:16:45;19.90;99.90
21570;DHT22;57598;50.888;4.746;2023-06-22T13:19:12;20.00;99.90
21570;DHT22;57598;50.888;4.746;2023-06-22T13:21:39;19.90;99.90
21570;DHT22;57598;50.888;4.746;2023-06-22T13:24:06;19.90;99.90
21570;DHT22;57598;50.888;4.746;2023-06-22T13:26:33;20.00;99.90
21570;DHT22;57598;50.888;4.746;2023-06-22T13:29:00;20.00;99.90
21570;DHT22;57598;50.888;4.746;2023-06-22T13:31:29;19.70;99.90
21570;DHT22;57598;50.888;4.746;2023-06-22T13:33:56;19.80;99.90
21570;DHT22;57598;50.888;4.746;2023-06-22T13:36:23;19.70;99.90
21570;DHT22;57598;50.888;4.746;2023-06-22T13:38:50;19.80;99.90
21570;DHT22;57598;50.888;4.746;2023-06-22T13:41:17;19.70;99.90
21570;DHT22;57598;50.888;4.746;2023-06-22T13:43:44;19.60;99.90
21570;DHT22;57598;50.888;4.746;2023-06-22T13:46:12;19.80;99.90
21570;DHT22;57598;50.888;4.746;2023-06-22T13:48:40;19.80;99.90
21570;DHT22;57598;50.888;4.746;2023-06-22T13:51:07;19.70;99.90
21570;DHT22;57598;50.888;4.746;2023-06-22T13:53:34;19.80;99.90
21570;DHT22;57598;50.888;4.746;2023-06-22T13:56:01;19.70;99.90
21570;DHT22;57598;50.888;4.746;2023-06-22T13:58:28;19.80;99.90
21570;DHT22;57598;50.888;4.746;2023-06-22T14:00:55;19.80;99.90
21570;DHT22;57598;50.888;4.746;2023-06-22T14:03:22;19.80;99.90
21570;DHT22;57598;50.888;4.746;2023-06-22T14:05:50;19.90;99.90
21570;DHT22;57598;50.888;4.746;2023-06-22T14:08:19;19.80;99.90
21570;DHT22;57598;50.888;4.746;2023-06-22T14:10:49;19.90;99.90
21570;DHT22;57598;50.888;4.746;2023-06-22T14:13:16;19.80;99.90
21570;DHT22;57598;50.888;4.746;2023-06-22T14:15:43;19.80;99.90
21570;DHT22;57598;50.888;4.746;2023-06-22T14:18:10;19.90;99.90
21570;DHT22;57598;50.888;4.746;2023-06-22T14:20:36;19.80;99.90
21570;DHT22;57598;50.888;4.746;2023-06-22T14:23:07;19.80;99.90
21570;DHT22;57598;50.888;4.746;2023-06-22T14:25:34;19.80;99.90
21570;DHT22;57598;50.888;4.746;2023-06-22T14:28:01;19.80;99.90
21570;DHT22;57598;50.888;4.746;2023-06-22T14:30:28;19.80;99.90
21570;DHT22;57598;50.888;4.746;2023-06-22T14:32:55;19.80;99.90
21570;DHT22;57598;50.888;4.746;2023-06-22T14:35:21;19.70;99.90
21570;DHT22;57598;50.888;4.746;2023-06-22T14:37:50;19.70;99.90
21570;DHT22;57598;50.888;4.746;2023-06-22T14:40:18;19.60;99.90
21570;DHT22;57598;50.888;4.746;2023-06-22T14:42:45;19.60;99.90
21570;DHT22;57598;50.888;4.746;2023-06-22T14:45:13;19.50;99.90
21570;DHT22;57598;50.888;4.746;2023-06-22T14:47:40;19.40;99.90
21570;DHT22;57598;50.888;4.746;2023-06-22T14:50:07;19.40;99.90
21570;DHT22;57598;50.888;4.746;2023-06-22T14:52:35;19.50;99.90
21570;DHT22;57598;50.888;4.746;2023-06-22T14:55:02;19.50;99.90
21570;DHT22;57598;50.888;4.746;2023-06-22T14:57:30;19.50;99.90
21570;DHT22;57598;50.888;4.746;2023-06-22T14:59:57;19.40;99.90
21570;DHT22;57598;50.888;4.746;2023-06-22T15:02:24;19.30;99.90
21570;DHT22;57598;50.888;4.746;2023-06-22T15:04:51;19.30;99.90
21570;DHT22;57598;50.888;4.746;2023-06-22T15:07:18;19.30;99.90
21570;DHT22;57598;50.888;4.746;2023-06-22T15:09:46;19.40;99.90
21570;DHT22;57598;50.888;4.746;2023-06-22T15:12:13;19.50;99.90
21570;DHT22;57598;50.888;4.746;2023-06-22T15:14:41;19.60;99.90
21570;DHT22;57598;50.888;4.746;2023-06-22T15:17:08;19.60;99.90
21570;DHT22;57598;50.888;4.746;2023-06-22T15:19:36;19.80;99.90
21570;DHT22;57598;50.888;4.746;2023-06-22T15:22:04;19.70;99.90
21570;DHT22;57598;50.888;4.746;2023-06-22T15:24:32;19.70;99.90
21570;DHT22;57598;50.888;4.746;2023-06-22T15:26:59;19.70;99.90
21570;DHT22;57598;50.888;4.746;2023-06-22T15:29:26;19.80;99.90
21570;DHT22;57598;50.888;4.746;2023-06-22T15:31:57;19.80;99.90
21570;DHT22;57598;50.888;4.746;2023-06-22T15:34:24;19.70;99.90
21570;DHT22;57598;50.888;4.746;2023-06-22T15:36:51;19.60;99.90